岡山グライダークラブ活動状況掲示板

岡山グライダークラブ
岡山市浦安南町639-1 岡南飛行場
 使用機:シャイベ式 SF25C型 ファルケ   JA2330
      ヴァレンティン式17E型 タイフーン  JA2342
 練習日:毎日曜日  クラブルーム:電話 086-265-1810
この掲示板は岡山グライダークラブの活動状況をお知らせする掲示板です。
!!!この掲示板は投稿規制をしています。!!!
クラブ関連各種情報は 岡山グライダークラブクラブルーム      を       .
  ブリーフイング情報は  岡山グライダークラブブリーフィングルーム  をご覧下さい。 .
※写真はクリックすると拡大して見ることが出来ます。
岡南飛行場へのアクセス等は 岡南飛行場管理事務所 をご覧ください。
クラブの ホームページ ができました。

!!!お待たせしました。新型コロナ感染症の感染が下火になったことから見学者等の受入を再開します。!!!
  注)なお、見学等の際には一般的な感染対策(マスク、ソーシャルディスタンス、黙食等)を順守してください。

 
11月13日
by OGC at 2022/11/13(日) 19:49:19 No.20221113194815  削除コメント
640 x 480 x 74,394バイト
No.1

11月13日
本日の参加者
  会員      09名
  その他     00名


@本日の様子






METAR
RJBK 130000Z VRB02KT 02KM SHRA BR FEW006ST SCT015CU BKN030CU 14/14 Q1013 A2991
RJOB 130000Z VRB02KT 3500 -SHRA BR BCFG FEW000 BKN040 16/16 Q1013
RJOT 130000Z 15005KT 9999 -SHRA FEW002 SCT030 BKN080 16/16 Q1012
RJOA 130000Z VRB02KT 2000 -SHRA BCFG BR FEW000 SCT007 BKN009 15/14 Q1013
TAF
RJOB 122306Z 1300/1406 05005KT 7000 -SHRA FEW005 SCT008 BKN015
     TEMPO 1300/1306 3000 SHRA BR BCFG FEW000 SCT005 BKN008
     BECMG 1312/1315 32005KT
     BECMG 1321/1400 36006KT
RJOT 122308Z 1300/1406 15004KT 8000 -SHRA FEW001 SCT008 BKN015
     TEMPO 1302/1305 3000 SHRA BR BCFG FEW000 BKN005 BKN008
     BECMG 1305/1307 31007KT
     BECMG 1400/1403 35006KT
RJOA 122306Z 1300/1406 23004KT 8000 -SHRA FEW001 SCT008 BKN015
     TEMPO 1300/1304 3000 SHRA BR BCFG FEW000 BKN005 BKN008
     BECMG 1305/1307 34015KT
     TEMPO 1307/1310 33020G30KT


 飛行場周辺は岡山マラソンで午前中交通規制で北側から飛行場に近づけないよう
になっていました。雨でもマラソンは実施されていたようですが、こちらは雨のた
め朝からファルケの50時間点検を行いました。



解散    16:30

本日のフライトはありません。

    << 戻る || ホームページ || 最新の掲示板へ